createdAt,value
2023-03-27T00:01:16.490Z,72.78
2023-03-27T00:03:43.073Z,74.79
2023-03-27T00:06:17.259Z,76.29
2023-03-27T00:08:46.396Z,75.09
2023-03-27T00:11:13.816Z,76.55
2023-03-27T00:13:49.055Z,76.70
2023-03-27T00:16:18.772Z,76.40
2023-03-27T00:18:45.955Z,76.14
2023-03-27T00:21:12.650Z,75.42
2023-03-27T00:23:39.236Z,75.03
2023-03-27T00:26:06.164Z,76.20
2023-03-27T00:28:32.901Z,76.41
2023-03-27T00:30:59.832Z,77.15
2023-03-27T00:33:26.955Z,75.37
2023-03-27T00:35:54.290Z,74.03
2023-03-27T00:38:21.081Z,74.61
2023-03-27T00:40:50.836Z,75.07
2023-03-27T00:43:29.085Z,76.07
2023-03-27T00:46:02.831Z,75.85
2023-03-27T00:48:33.274Z,74.67
2023-03-27T00:50:59.994Z,76.33
2023-03-27T00:53:30.041Z,78.04
2023-03-27T00:56:01.506Z,75.74
2023-03-27T00:58:42.166Z,75.45
2023-03-27T01:01:12.287Z,76.72
2023-03-27T01:03:41.425Z,77.19
2023-03-27T01:06:09.607Z,75.95
2023-03-27T01:08:39.436Z,76.53
2023-03-27T01:11:33.255Z,76.78
2023-03-27T01:14:08.938Z,78.10
2023-03-27T01:16:42.637Z,77.95
2023-03-27T01:19:24.784Z,80.60
2023-03-27T01:22:06.891Z,83.17
2023-03-27T01:24:56.474Z,80.80
2023-03-27T01:27:54.757Z,80.70
2023-03-27T01:30:31.896Z,81.04
2023-03-27T01:33:18.425Z,82.41
2023-03-27T01:36:13.289Z,83.48
2023-03-27T01:39:08.279Z,84.41
2023-03-27T01:41:42.648Z,83.50
2023-03-27T01:44:19.811Z,82.03
2023-03-27T01:46:53.245Z,81.95
2023-03-27T01:49:24.174Z,81.81
2023-03-27T01:52:06.538Z,83.33
2023-03-27T01:54:38.397Z,83.57
2023-03-27T01:57:09.104Z,81.50
2023-03-27T01:59:41.735Z,80.47
2023-03-27T02:02:23.486Z,78.05
2023-03-27T02:04:57.202Z,77.31
2023-03-27T02:07:38.494Z,75.83
2023-03-27T02:10:09.107Z,75.28
2023-03-27T02:12:43.660Z,74.21
2023-03-27T02:15:23.053Z,72.93
2023-03-27T02:18:05.245Z,72.08
2023-03-27T02:20:38.351Z,71.29
2023-03-27T02:23:06.408Z,70.22
2023-03-27T02:25:36.124Z,69.53
2023-03-27T02:28:29.214Z,69.66
2023-03-27T02:31:32.733Z,69.23
2023-03-27T02:34:13.245Z,69.71
2023-03-27T02:36:45.402Z,69.57
2023-03-27T02:39:22.469Z,70.40
2023-03-27T02:41:57.050Z,70.00
2023-03-27T02:44:32.918Z,70.15
2023-03-27T02:47:14.850Z,70.60
2023-03-27T02:49:53.916Z,71.32
2023-03-27T02:52:31.038Z,71.54
2023-03-27T02:55:07.489Z,72.06
2023-03-27T02:57:40.797Z,72.02
2023-03-27T03:00:25.940Z,71.94
2023-03-27T03:03:00.609Z,72.29
2023-03-27T03:05:27.607Z,72.53
2023-03-27T03:07:54.453Z,72.20
2023-03-27T03:10:21.470Z,71.90
2023-03-27T03:12:48.020Z,72.31
2023-03-27T03:15:14.648Z,72.64
2023-03-27T03:17:41.231Z,72.67
2023-03-27T03:20:09.903Z,72.38
2023-03-27T03:22:39.998Z,72.25
2023-03-27T03:25:07.853Z,72.66
2023-03-27T03:27:34.450Z,72.56
2023-03-27T03:30:01.312Z,72.55
2023-03-27T03:32:28.152Z,72.65
2023-03-27T03:34:57.063Z,72.09
2023-03-27T03:37:28.721Z,72.23
2023-03-27T03:39:55.889Z,72.12
2023-03-27T03:42:24.224Z,72.66
2023-03-27T03:44:51.095Z,73.06
2023-03-27T03:47:17.807Z,73.02
2023-03-27T03:49:44.468Z,73.10
2023-03-27T03:52:11.066Z,73.16
2023-03-27T03:54:38.813Z,73.21
2023-03-27T03:57:05.717Z,74.25
2023-03-27T03:59:32.551Z,74.22
2023-03-27T04:01:59.197Z,74.47
2023-03-27T04:04:25.890Z,74.54
2023-03-27T04:06:53.151Z,74.79
2023-03-27T04:09:19.783Z,75.19
2023-03-27T04:11:47.069Z,75.21
2023-03-27T04:14:13.770Z,75.28
2023-03-27T04:16:40.331Z,75.53
2023-03-27T04:19:07.206Z,76.01
2023-03-27T04:21:33.761Z,76.05
2023-03-27T04:24:02.587Z,76.23
2023-03-27T04:26:29.779Z,76.11
2023-03-27T04:28:56.586Z,76.77
2023-03-27T04:31:23.165Z,76.56
2023-03-27T04:33:52.341Z,76.01
2023-03-27T04:36:19.712Z,75.94
2023-03-27T04:38:47.985Z,75.54
2023-03-27T04:41:14.766Z,76.08
2023-03-27T04:43:41.948Z,75.41
2023-03-27T04:46:09.393Z,75.23
2023-03-27T04:48:38.526Z,74.79
2023-03-27T04:51:06.904Z,74.20
2023-03-27T04:53:36.139Z,74.05
2023-03-27T04:56:03.131Z,74.36
2023-03-27T04:58:29.745Z,74.90
2023-03-27T05:00:57.560Z,74.15
2023-03-27T05:03:24.512Z,73.66
2023-03-27T05:05:51.230Z,73.19
2023-03-27T05:08:18.476Z,73.45
2023-03-27T05:10:46.517Z,74.02
2023-03-27T05:13:13.289Z,73.91
2023-03-27T05:15:39.814Z,73.89
2023-03-27T05:18:07.494Z,73.65
2023-03-27T05:20:34.727Z,73.70
2023-03-27T05:23:01.379Z,74.14
2023-03-27T05:25:29.030Z,73.50
2023-03-27T05:27:55.599Z,73.14
2023-03-27T05:30:24.663Z,73.27
2023-03-27T05:32:53.610Z,73.38
2023-03-27T05:35:23.417Z,73.09
2023-03-27T05:37:52.721Z,73.08
2023-03-27T05:40:25.286Z,72.42
2023-03-27T05:42:53.365Z,72.50
2023-03-27T05:45:20.951Z,72.79
2023-03-27T05:47:56.041Z,72.33
2023-03-27T05:50:25.507Z,71.52
2023-03-27T05:52:59.585Z,72.24
2023-03-27T05:55:28.063Z,72.75
2023-03-27T05:57:55.287Z,72.21
2023-03-27T06:00:25.818Z,72.88
2023-03-27T06:02:57.324Z,72.78
2023-03-27T06:05:25.068Z,72.84
2023-03-27T06:07:52.191Z,72.88
2023-03-27T06:10:20.535Z,72.98
2023-03-27T06:12:48.952Z,73.13
2023-03-27T06:15:16.339Z,74.00
2023-03-27T06:17:44.089Z,72.43
2023-03-27T06:20:12.593Z,73.03
2023-03-27T06:22:46.267Z,73.19
2023-03-27T06:25:14.181Z,72.98
2023-03-27T06:27:45.551Z,72.86
2023-03-27T06:30:13.718Z,72.92
2023-03-27T06:32:52.466Z,72.56
2023-03-27T06:35:20.338Z,72.71
2023-03-27T06:37:51.271Z,72.95
2023-03-27T06:40:24.378Z,71.75
2023-03-27T06:43:05.896Z,71.56
2023-03-27T06:45:36.090Z,70.52
2023-03-27T06:48:18.831Z,69.88
2023-03-27T06:50:50.887Z,69.53
2023-03-27T06:55:48.344Z,68.29
2023-03-27T06:58:16.688Z,67.34
2023-03-27T07:00:44.487Z,66.78
2023-03-27T07:03:11.934Z,65.49
2023-03-27T07:05:39.526Z,65.27
2023-03-27T07:08:22.437Z,63.42
2023-03-27T07:11:00.422Z,60.31
2023-03-27T07:13:34.615Z,58.62
2023-03-27T07:16:01.277Z,57.29
2023-03-27T07:18:27.922Z,55.38
2023-03-27T07:20:54.737Z,53.78
2023-03-27T07:23:21.516Z,52.91
2023-03-27T07:25:50.203Z,53.10
2023-03-27T07:28:18.515Z,53.75
2023-03-27T07:30:45.440Z,54.38
2023-03-27T07:33:12.711Z,54.60
2023-03-27T07:35:47.549Z,55.86
2023-03-27T07:38:14.711Z,55.40
2023-03-27T07:40:43.428Z,55.92
2023-03-27T07:43:10.122Z,55.72
2023-03-27T07:45:36.715Z,55.72
2023-03-27T07:48:14.077Z,55.83
2023-03-27T07:50:40.634Z,55.30
2023-03-27T07:53:07.334Z,55.76
2023-03-27T07:55:37.777Z,55.25
2023-03-27T07:58:06.817Z,55.47
2023-03-27T08:00:35.529Z,55.20
2023-03-27T08:03:10.751Z,54.60
2023-03-27T08:05:38.483Z,53.79
2023-03-27T08:08:05.144Z,53.39
2023-03-27T08:10:32.271Z,53.39
2023-03-27T08:12:58.968Z,52.87
2023-03-27T08:15:25.905Z,51.77
2023-03-27T08:17:55.221Z,52.03
2023-03-27T08:20:24.133Z,51.65
2023-03-27T08:22:53.873Z,52.10
2023-03-27T08:25:22.830Z,51.82
2023-03-27T08:27:49.998Z,52.21
2023-03-27T08:30:17.451Z,50.09
2023-03-27T08:32:44.890Z,49.89
2023-03-27T08:35:12.353Z,48.85
2023-03-27T08:37:39.688Z,48.80
2023-03-27T08:40:13.552Z,48.77
2023-03-27T08:42:44.048Z,48.89
2023-03-27T08:45:20.796Z,49.51
2023-03-27T08:47:56.668Z,49.82
2023-03-27T08:50:44.201Z,50.15
2023-03-27T08:53:22.910Z,50.35
2023-03-27T08:55:49.945Z,50.08
2023-03-27T08:58:21.812Z,49.46
2023-03-27T09:01:03.560Z,49.22
2023-03-27T09:03:38.987Z,48.69
2023-03-27T09:06:26.778Z,48.37
2023-03-27T09:08:59.522Z,48.27
2023-03-27T09:11:37.304Z,48.52
2023-03-27T09:14:14.912Z,48.94
2023-03-27T09:16:49.677Z,48.81
2023-03-27T09:19:24.343Z,49.39
2023-03-27T09:22:15.391Z,49.57
2023-03-27T09:24:50.767Z,50.62
2023-03-27T09:27:34.028Z,50.44
2023-03-27T09:30:19.321Z,50.68
2023-03-27T09:32:51.782Z,51.38
2023-03-27T09:35:20.900Z,51.64
2023-03-27T09:37:50.621Z,52.17
2023-03-27T09:40:25.640Z,52.87
2023-03-27T09:42:54.713Z,53.22
2023-03-27T09:45:22.238Z,53.23
2023-03-27T09:47:51.680Z,53.76
2023-03-27T09:50:41.369Z,54.04
2023-03-27T09:53:12.388Z,54.62
2023-03-27T09:55:56.378Z,54.65
2023-03-27T09:58:29.031Z,54.95
2023-03-27T10:01:21.712Z,55.28
2023-03-27T10:03:52.064Z,55.36
2023-03-27T10:06:27.192Z,55.97
2023-03-27T10:08:55.851Z,56.36
2023-03-27T10:11:27.326Z,55.93
2023-03-27T10:13:55.322Z,55.67
2023-03-27T10:16:22.948Z,56.15
2023-03-27T10:18:55.716Z,56.20
2023-03-27T10:21:32.665Z,56.31
2023-03-27T10:24:05.715Z,55.91
2023-03-27T10:26:37.004Z,56.05
2023-03-27T10:29:19.077Z,55.81
2023-03-27T10:31:52.724Z,55.97
2023-03-27T10:34:33.634Z,56.16
2023-03-27T10:37:04.908Z,55.89
2023-03-27T10:39:35.918Z,56.20
2023-03-27T10:42:07.605Z,57.52
2023-03-27T10:44:37.747Z,57.75
2023-03-27T10:47:14.996Z,57.94
2023-03-27T10:49:44.448Z,57.54
2023-03-27T10:52:20.932Z,57.72
2023-03-27T10:54:54.599Z,57.68
2023-03-27T10:57:37.350Z,57.52
2023-03-27T11:00:41.058Z,57.64
2023-03-27T11:03:34.738Z,56.66
2023-03-27T11:06:05.610Z,57.10
2023-03-27T11:08:34.729Z,57.89
2023-03-27T11:11:28.490Z,57.66
2023-03-27T11:14:02.275Z,56.50
2023-03-27T11:17:04.558Z,54.17
2023-03-27T11:19:49.826Z,59.37
2023-03-27T11:22:23.644Z,66.16
2023-03-27T11:25:06.549Z,72.11
2023-03-27T11:27:41.466Z,74.82
2023-03-27T11:30:08.398Z,78.31
2023-03-27T11:32:45.695Z,83.76
2023-03-27T11:35:23.071Z,85.38
2023-03-27T11:38:04.512Z,88.17
2023-03-27T11:40:40.292Z,93.21
2023-03-27T11:43:11.078Z,90.53
2023-03-27T11:46:00.792Z,93.70
2023-03-27T11:48:51.648Z,94.12
2023-03-27T11:51:53.867Z,96.59
2023-03-27T11:54:53.573Z,95.61
2023-03-27T11:57:26.393Z,98.60
2023-03-27T12:00:07.099Z,100.00
2023-03-27T12:02:49.447Z,96.24
2023-03-27T12:05:36.588Z,98.45
2023-03-27T12:08:16.702Z,99.28
2023-03-27T12:10:47.747Z,100.00
2023-03-27T12:13:41.891Z,100.00
2023-03-27T12:16:29.006Z,98.00
2023-03-27T12:19:32.526Z,100.00
2023-03-27T12:22:40.237Z,100.00
2023-03-27T12:25:32.731Z,100.00
2023-03-27T12:28:23.123Z,100.00
2023-03-27T12:30:50.080Z,100.00
2023-03-27T12:33:42.806Z,100.00
2023-03-27T12:36:15.003Z,100.00
2023-03-27T12:38:43.779Z,100.00
2023-03-27T12:41:25.890Z,100.00
2023-03-27T12:44:01.131Z,100.00
2023-03-27T12:46:28.546Z,100.00
2023-03-27T12:49:21.126Z,100.00
2023-03-27T12:51:54.065Z,100.00
2023-03-27T12:54:39.754Z,100.00
2023-03-27T12:57:20.715Z,100.00
2023-03-27T12:59:59.823Z,100.00
2023-03-27T13:02:35.779Z,100.00
2023-03-27T13:05:28.040Z,100.00
2023-03-27T13:08:07.129Z,100.00
2023-03-27T13:11:04.354Z,100.00
2023-03-27T13:13:33.900Z,100.00
2023-03-27T13:16:31.601Z,100.00
2023-03-27T13:19:05.306Z,100.00
2023-03-27T13:22:03.764Z,100.00
2023-03-27T13:24:52.389Z,100.00
2023-03-27T13:27:37.284Z,100.00
2023-03-27T13:30:05.546Z,100.00
2023-03-27T13:32:39.166Z,100.00
2023-03-27T13:35:11.658Z,100.00
2023-03-27T13:37:48.395Z,100.00
2023-03-27T13:40:24.481Z,100.00
2023-03-27T13:42:55.837Z,100.00
2023-03-27T13:45:29.639Z,100.00
2023-03-27T13:48:13.655Z,100.00
2023-03-27T13:50:52.386Z,100.00
2023-03-27T13:53:33.963Z,100.00
2023-03-27T13:56:32.035Z,100.00
2023-03-27T13:59:29.390Z,100.00
2023-03-27T14:02:03.923Z,100.00
2023-03-27T14:04:58.695Z,100.00
2023-03-27T14:07:55.868Z,100.00
2023-03-27T14:11:16.785Z,100.00
2023-03-27T14:13:43.314Z,100.00
2023-03-27T14:16:37.560Z,100.00
2023-03-27T14:19:10.003Z,100.00
2023-03-27T14:21:58.641Z,99.14
2023-03-27T14:25:05.487Z,100.00
2023-03-27T14:27:34.582Z,100.00
2023-03-27T14:30:16.603Z,98.08
2023-03-27T14:32:43.772Z,97.71
2023-03-27T14:35:44.063Z,94.69
2023-03-27T14:38:22.822Z,95.32
2023-03-27T14:40:52.983Z,97.71
2023-03-27T14:43:22.019Z,99.45
2023-03-27T14:45:51.669Z,100.00
2023-03-27T14:48:30.318Z,98.32
2023-03-27T14:51:03.302Z,98.22
2023-03-27T14:53:36.792Z,100.00
2023-03-27T14:56:24.922Z,100.00
2023-03-27T14:58:54.594Z,100.00
2023-03-27T15:01:21.707Z,100.00
2023-03-27T15:03:51.881Z,100.00
2023-03-27T15:06:23.257Z,100.00
2023-03-27T15:09:05.517Z,100.00
2023-03-27T15:11:39.054Z,100.00
2023-03-27T15:14:12.965Z,100.00
2023-03-27T15:16:41.412Z,100.00
2023-03-27T15:19:14.215Z,100.00
2023-03-27T15:21:58.522Z,100.00
2023-03-27T15:24:55.418Z,100.00
2023-03-27T15:27:26.415Z,100.00
2023-03-27T15:29:58.488Z,100.00
2023-03-27T15:32:42.210Z,100.00
2023-03-27T15:35:13.946Z,100.00
2023-03-27T15:37:40.667Z,100.00
2023-03-27T15:40:13.727Z,100.00
2023-03-27T15:42:54.057Z,100.00
2023-03-27T15:45:23.146Z,100.00
2023-03-27T15:48:02.967Z,100.00
2023-03-27T15:50:29.651Z,100.00
2023-03-27T15:52:58.251Z,100.00
2023-03-27T15:55:42.226Z,100.00
2023-03-27T15:58:20.448Z,100.00
2023-03-27T16:00:49.137Z,100.00
2023-03-27T16:03:21.661Z,100.00
2023-03-27T16:05:51.501Z,100.00
2023-03-27T16:08:28.139Z,100.00
2023-03-27T16:10:55.786Z,100.00
2023-03-27T16:13:28.229Z,100.00
2023-03-27T16:16:00.842Z,100.00
2023-03-27T16:18:34.288Z,100.00
2023-03-27T16:21:13.465Z,100.00
2023-03-27T16:23:40.794Z,100.00
2023-03-27T16:26:12.479Z,100.00
2023-03-27T16:28:40.660Z,100.00
2023-03-27T16:31:15.073Z,100.00
2023-03-27T16:33:45.686Z,100.00
2023-03-27T16:36:15.352Z,100.00
2023-03-27T16:38:43.770Z,100.00
2023-03-27T16:41:13.344Z,100.00
2023-03-27T16:43:40.420Z,100.00
2023-03-27T16:46:10.854Z,100.00
2023-03-27T16:48:37.434Z,100.00
2023-03-27T16:51:04.130Z,100.00
2023-03-27T16:53:30.727Z,100.00
2023-03-27T16:55:57.902Z,100.00
2023-03-27T16:58:24.672Z,100.00
2023-03-27T17:00:51.313Z,100.00
2023-03-27T17:03:17.949Z,100.00
2023-03-27T17:05:44.555Z,100.00
2023-03-27T17:08:13.012Z,100.00
2023-03-27T17:10:39.630Z,100.00
2023-03-27T17:13:06.646Z,100.00
2023-03-27T17:15:39.107Z,100.00
2023-03-27T17:18:06.329Z,100.00
2023-03-27T17:20:32.957Z,100.00
2023-03-27T17:22:59.587Z,98.49
2023-03-27T17:25:26.436Z,97.60
2023-03-27T17:27:53.132Z,98.55
2023-03-27T17:30:30.623Z,99.34
2023-03-27T17:33:01.721Z,99.21
2023-03-27T17:35:28.524Z,99.43
2023-03-27T17:37:55.237Z,98.93
2023-03-27T17:40:21.883Z,97.98
2023-03-27T17:42:48.454Z,98.66
2023-03-27T17:45:15.382Z,97.28
2023-03-27T17:47:41.965Z,100.00
2023-03-27T17:50:08.804Z,99.65
2023-03-27T17:52:35.668Z,100.00
2023-03-27T17:55:02.311Z,99.95
2023-03-27T17:57:29.681Z,100.00
2023-03-27T17:59:56.210Z,100.00
2023-03-27T18:02:22.894Z,100.00
2023-03-27T18:04:52.243Z,100.00
2023-03-27T18:07:20.038Z,100.00
2023-03-27T18:09:46.865Z,100.00
2023-03-27T18:12:14.020Z,100.00
2023-03-27T18:14:42.446Z,100.00
2023-03-27T18:17:09.476Z,100.00
2023-03-27T18:19:36.364Z,100.00
2023-03-27T18:22:03.732Z,100.00
2023-03-27T18:24:30.369Z,100.00
2023-03-27T18:26:56.918Z,100.00
2023-03-27T18:29:24.548Z,100.00
2023-03-27T18:31:51.263Z,100.00
2023-03-27T18:34:18.103Z,100.00
2023-03-27T18:36:50.732Z,100.00
2023-03-27T18:39:21.070Z,100.00
2023-03-27T18:41:47.649Z,100.00
2023-03-27T18:44:14.569Z,100.00
2023-03-27T18:46:41.256Z,100.00
2023-03-27T18:49:21.566Z,100.00
2023-03-27T18:51:48.433Z,100.00
2023-03-27T18:54:15.021Z,100.00
2023-03-27T18:56:42.102Z,100.00
2023-03-27T18:59:11.141Z,100.00
2023-03-27T19:01:37.849Z,100.00
2023-03-27T19:04:04.710Z,100.00
2023-03-27T19:06:32.668Z,100.00
2023-03-27T19:08:59.587Z,100.00
2023-03-27T19:11:26.176Z,100.00
2023-03-27T19:13:53.052Z,100.00
2023-03-27T19:16:19.620Z,100.00
2023-03-27T19:18:46.332Z,100.00
2023-03-27T19:21:12.920Z,100.00
2023-03-27T19:23:39.482Z,100.00
2023-03-27T19:26:08.648Z,100.00
2023-03-27T19:28:35.896Z,100.00
2023-03-27T19:31:11.372Z,100.00
2023-03-27T19:33:38.881Z,100.00
2023-03-27T19:36:05.536Z,100.00
2023-03-27T19:38:32.194Z,100.00
2023-03-27T19:40:59.059Z,100.00
2023-03-27T19:43:25.991Z,100.00
2023-03-27T19:46:08.277Z,100.00
2023-03-27T19:48:42.069Z,100.00
2023-03-27T19:51:08.604Z,98.18
2023-03-27T19:53:35.185Z,93.38
2023-03-27T19:56:01.831Z,94.01
2023-03-27T19:58:29.292Z,97.13
2023-03-27T20:00:55.925Z,95.48
2023-03-27T20:03:27.199Z,96.87
2023-03-27T20:05:56.300Z,99.36
2023-03-27T20:08:38.299Z,100.00
2023-03-27T20:11:06.918Z,100.00
2023-03-27T20:13:42.464Z,100.00
2023-03-27T20:16:16.547Z,100.00
2023-03-27T20:18:43.737Z,100.00
2023-03-27T20:21:13.743Z,100.00
2023-03-27T20:23:41.914Z,100.00
2023-03-27T20:26:09.381Z,100.00
2023-03-27T20:28:36.139Z,100.00
2023-03-27T20:31:06.665Z,100.00
2023-03-27T20:33:33.411Z,100.00
2023-03-27T20:36:00.351Z,100.00
2023-03-27T20:38:30.775Z,100.00
2023-03-27T20:40:57.896Z,100.00
2023-03-27T20:43:27.077Z,100.00
2023-03-27T20:45:55.071Z,100.00
2023-03-27T20:48:22.227Z,100.00
2023-03-27T20:50:52.602Z,100.00
2023-03-27T20:53:26.069Z,100.00
2023-03-27T20:55:59.723Z,100.00
2023-03-27T20:58:27.641Z,100.00
2023-03-27T21:00:56.146Z,100.00
2023-03-27T21:03:23.289Z,100.00
2023-03-27T21:05:50.583Z,100.00
2023-03-27T21:08:17.222Z,100.00
2023-03-27T21:10:53.046Z,100.00
2023-03-27T21:13:20.110Z,100.00
2023-03-27T21:15:46.810Z,100.00
2023-03-27T21:18:13.366Z,100.00
2023-03-27T21:20:39.944Z,100.00
2023-03-27T21:23:06.549Z,100.00
2023-03-27T21:25:34.228Z,100.00
2023-03-27T21:28:00.949Z,100.00
2023-03-27T21:30:46.472Z,100.00
2023-03-27T21:33:15.898Z,100.00
2023-03-27T21:35:45.781Z,100.00
2023-03-27T21:38:13.837Z,100.00
2023-03-27T21:40:41.253Z,100.00
2023-03-27T21:43:08.485Z,100.00
2023-03-27T21:45:36.119Z,100.00
2023-03-27T21:48:02.917Z,100.00
2023-03-27T21:50:29.678Z,100.00
2023-03-27T21:52:56.467Z,100.00
2023-03-27T21:55:23.427Z,100.00
2023-03-27T21:57:50.071Z,100.00
2023-03-27T22:00:16.881Z,100.00
2023-03-27T22:02:43.587Z,100.00
2023-03-27T22:05:10.392Z,100.00
2023-03-27T22:07:36.934Z,100.00
2023-03-27T22:10:06.341Z,100.00
2023-03-27T22:12:37.336Z,100.00
2023-03-27T22:15:06.040Z,100.00
2023-03-27T22:17:34.681Z,100.00
2023-03-27T22:20:01.222Z,100.00
2023-03-27T22:22:27.909Z,100.00
2023-03-27T22:24:54.443Z,100.00
2023-03-27T22:27:21.030Z,100.00
2023-03-27T22:29:47.602Z,100.00
2023-03-27T22:32:14.159Z,100.00
2023-03-27T22:34:40.727Z,100.00
2023-03-27T22:37:07.364Z,100.00
2023-03-27T22:39:33.958Z,100.00
2023-03-27T22:42:00.762Z,100.00
2023-03-27T22:44:29.738Z,100.00
2023-03-27T22:46:56.636Z,100.00
2023-03-27T22:49:23.204Z,100.00
2023-03-27T22:51:49.712Z,100.00
2023-03-27T22:54:18.576Z,100.00
2023-03-27T22:56:47.115Z,100.00
2023-03-27T22:59:14.839Z,100.00
2023-03-27T23:01:41.456Z,100.00
2023-03-27T23:04:08.030Z,100.00
2023-03-27T23:06:34.846Z,100.00
2023-03-27T23:09:01.438Z,100.00
2023-03-27T23:11:28.130Z,100.00
2023-03-27T23:13:54.798Z,100.00
2023-03-27T23:16:21.528Z,100.00
2023-03-27T23:18:48.171Z,100.00
2023-03-27T23:21:17.696Z,100.00
2023-03-27T23:23:45.223Z,100.00
2023-03-27T23:26:12.821Z,100.00
2023-03-27T23:28:41.714Z,100.00
2023-03-27T23:31:12.214Z,100.00
2023-03-27T23:33:41.531Z,100.00
2023-03-27T23:36:10.834Z,100.00
2023-03-27T23:38:38.125Z,100.00
2023-03-27T23:41:06.194Z,100.00
2023-03-27T23:43:32.890Z,100.00
2023-03-27T23:45:59.927Z,100.00
2023-03-27T23:48:30.453Z,100.00
2023-03-27T23:50:57.738Z,100.00
2023-03-27T23:53:26.189Z,100.00
2023-03-27T23:55:53.958Z,100.00
2023-03-27T23:58:20.832Z,100.00
